sensor_id;sensor_type;location;lat;lon;timestamp;P1;durP1;ratioP1;P2;durP2;ratioP2
53765;SDS011;39682;51.490;7.310;2023-02-14T00:01:12;12.70;;;6.45;;
53765;SDS011;39682;51.490;7.310;2023-02-14T00:03:38;14.85;;;7.40;;
53765;SDS011;39682;51.490;7.310;2023-02-14T00:06:08;14.88;;;7.15;;
53765;SDS011;39682;51.490;7.310;2023-02-14T00:08:35;15.95;;;8.25;;
53765;SDS011;39682;51.490;7.310;2023-02-14T00:11:01;18.33;;;9.43;;
53765;SDS011;39682;51.490;7.310;2023-02-14T00:13:27;22.35;;;10.43;;
53765;SDS011;39682;51.490;7.310;2023-02-14T00:15:54;18.63;;;11.23;;
53765;SDS011;39682;51.490;7.310;2023-02-14T00:18:20;19.65;;;10.65;;
53765;SDS011;39682;51.490;7.310;2023-02-14T00:20:46;18.75;;;10.90;;
53765;SDS011;39682;51.490;7.310;2023-02-14T00:23:12;19.77;;;9.68;;
53765;SDS011;39682;51.490;7.310;2023-02-14T00:25:38;17.60;;;10.30;;
53765;SDS011;39682;51.490;7.310;2023-02-14T00:28:04;17.02;;;9.32;;
53765;SDS011;39682;51.490;7.310;2023-02-14T00:30:33;17.65;;;9.38;;
53765;SDS011;39682;51.490;7.310;2023-02-14T00:32:59;17.17;;;9.93;;
53765;SDS011;39682;51.490;7.310;2023-02-14T00:35:25;18.33;;;9.02;;
53765;SDS011;39682;51.490;7.310;2023-02-14T00:37:51;15.50;;;9.02;;
53765;SDS011;39682;51.490;7.310;2023-02-14T00:40:17;14.50;;;8.35;;
53765;SDS011;39682;51.490;7.310;2023-02-14T00:42:43;13.70;;;8.50;;
53765;SDS011;39682;51.490;7.310;2023-02-14T00:45:09;11.02;;;7.18;;
53765;SDS011;39682;51.490;7.310;2023-02-14T00:47:35;14.20;;;8.30;;
53765;SDS011;39682;51.490;7.310;2023-02-14T00:50:01;13.38;;;8.15;;
53765;SDS011;39682;51.490;7.310;2023-02-14T00:52:29;13.30;;;8.23;;
53765;SDS011;39682;51.490;7.310;2023-02-14T00:54:55;16.50;;;8.10;;
53765;SDS011;39682;51.490;7.310;2023-02-14T00:57:21;14.10;;;7.95;;
53765;SDS011;39682;51.490;7.310;2023-02-14T00:59:47;12.50;;;8.32;;
53765;SDS011;39682;51.490;7.310;2023-02-14T01:02:13;10.98;;;6.88;;
53765;SDS011;39682;51.490;7.310;2023-02-14T01:04:39;12.80;;;7.00;;
53765;SDS011;39682;51.490;7.310;2023-02-14T01:07:04;14.15;;;7.22;;
53765;SDS011;39682;51.490;7.310;2023-02-14T01:09:30;13.07;;;8.00;;
53765;SDS011;39682;51.490;7.310;2023-02-14T01:11:56;14.45;;;7.05;;
53765;SDS011;39682;51.490;7.310;2023-02-14T01:14:22;11.55;;;6.85;;
53765;SDS011;39682;51.490;7.310;2023-02-14T01:16:48;11.90;;;6.28;;
53765;SDS011;39682;51.490;7.310;2023-02-14T01:19:14;10.88;;;5.93;;
53765;SDS011;39682;51.490;7.310;2023-02-14T01:21:40;13.25;;;6.32;;
53765;SDS011;39682;51.490;7.310;2023-02-14T01:24:06;9.23;;;5.63;;
53765;SDS011;39682;51.490;7.310;2023-02-14T01:26:33;8.10;;;5.13;;
53765;SDS011;39682;51.490;7.310;2023-02-14T01:28:59;10.05;;;5.85;;
53765;SDS011;39682;51.490;7.310;2023-02-14T01:31:26;12.35;;;6.03;;
53765;SDS011;39682;51.490;7.310;2023-02-14T01:33:53;12.25;;;6.43;;
53765;SDS011;39682;51.490;7.310;2023-02-14T01:38:45;10.93;;;6.22;;
53765;SDS011;39682;51.490;7.310;2023-02-14T01:41:11;9.30;;;5.38;;
53765;SDS011;39682;51.490;7.310;2023-02-14T01:46:23;9.45;;;5.05;;
53765;SDS011;39682;51.490;7.310;2023-02-14T01:48:49;9.18;;;5.20;;
53765;SDS011;39682;51.490;7.310;2023-02-14T01:51:17;7.85;;;4.93;;
53765;SDS011;39682;51.490;7.310;2023-02-14T01:53:43;9.23;;;5.22;;
53765;SDS011;39682;51.490;7.310;2023-02-14T01:56:14;9.05;;;4.70;;
53765;SDS011;39682;51.490;7.310;2023-02-14T01:58:43;12.77;;;5.80;;
53765;SDS011;39682;51.490;7.310;2023-02-14T02:01:11;10.93;;;5.55;;
53765;SDS011;39682;51.490;7.310;2023-02-14T02:03:48;12.20;;;5.63;;
53765;SDS011;39682;51.490;7.310;2023-02-14T02:06:17;11.13;;;5.47;;
53765;SDS011;39682;51.490;7.310;2023-02-14T02:08:47;10.18;;;5.45;;
53765;SDS011;39682;51.490;7.310;2023-02-14T02:11:15;10.52;;;5.82;;
53765;SDS011;39682;51.490;7.310;2023-02-14T02:13:41;9.13;;;5.97;;
53765;SDS011;39682;51.490;7.310;2023-02-14T02:16:17;9.68;;;5.53;;
53765;SDS011;39682;51.490;7.310;2023-02-14T02:18:56;9.05;;;5.28;;
53765;SDS011;39682;51.490;7.310;2023-02-14T02:26:49;8.75;;;6.07;;
53765;SDS011;39682;51.490;7.310;2023-02-14T02:29:31;9.02;;;5.70;;
53765;SDS011;39682;51.490;7.310;2023-02-14T02:39:39;12.70;;;5.57;;
53765;SDS011;39682;51.490;7.310;2023-02-14T02:47:36;10.77;;;5.72;;
53765;SDS011;39682;51.490;7.310;2023-02-14T02:49:59;8.18;;;5.05;;
53765;SDS011;39682;51.490;7.310;2023-02-14T02:58:26;10.45;;;5.18;;
53765;SDS011;39682;51.490;7.310;2023-02-14T03:00:52;10.93;;;5.82;;
53765;SDS011;39682;51.490;7.310;2023-02-14T03:03:19;9.60;;;6.05;;
53765;SDS011;39682;51.490;7.310;2023-02-14T03:06:05;11.07;;;6.15;;
53765;SDS011;39682;51.490;7.310;2023-02-14T03:08:31;10.85;;;6.15;;
53765;SDS011;39682;51.490;7.310;2023-02-14T03:10:57;10.30;;;6.18;;
53765;SDS011;39682;51.490;7.310;2023-02-14T03:13:26;11.48;;;5.43;;
53765;SDS011;39682;51.490;7.310;2023-02-14T03:20:54;10.35;;;5.88;;
53765;SDS011;39682;51.490;7.310;2023-02-14T03:23:27;11.38;;;5.60;;
53765;SDS011;39682;51.490;7.310;2023-02-14T03:26:01;8.43;;;5.85;;
53765;SDS011;39682;51.490;7.310;2023-02-14T03:36:07;10.38;;;5.97;;
53765;SDS011;39682;51.490;7.310;2023-02-14T03:38:43;11.90;;;5.70;;
53765;SDS011;39682;51.490;7.310;2023-02-14T03:44:05;10.55;;;6.13;;
53765;SDS011;39682;51.490;7.310;2023-02-14T03:46:47;12.70;;;6.35;;
53765;SDS011;39682;51.490;7.310;2023-02-14T03:49:16;10.25;;;5.78;;
53765;SDS011;39682;51.490;7.310;2023-02-14T03:51:45;13.05;;;6.15;;
53765;SDS011;39682;51.490;7.310;2023-02-14T03:54:12;15.25;;;6.22;;
53765;SDS011;39682;51.490;7.310;2023-02-14T03:56:40;13.10;;;6.93;;
53765;SDS011;39682;51.490;7.310;2023-02-14T03:59:10;10.77;;;6.80;;
53765;SDS011;39682;51.490;7.310;2023-02-14T04:01:43;11.77;;;6.40;;
53765;SDS011;39682;51.490;7.310;2023-02-14T04:04:10;10.93;;;6.43;;
53765;SDS011;39682;51.490;7.310;2023-02-14T04:06:37;11.00;;;6.93;;
53765;SDS011;39682;51.490;7.310;2023-02-14T04:09:03;12.30;;;6.82;;
53765;SDS011;39682;51.490;7.310;2023-02-14T04:11:29;15.00;;;7.47;;
53765;SDS011;39682;51.490;7.310;2023-02-14T04:13:59;12.48;;;7.13;;
53765;SDS011;39682;51.490;7.310;2023-02-14T04:16:24;13.18;;;5.55;;
53765;SDS011;39682;51.490;7.310;2023-02-14T04:18:50;12.50;;;6.63;;
53765;SDS011;39682;51.490;7.310;2023-02-14T04:21:35;9.77;;;5.40;;
53765;SDS011;39682;51.490;7.310;2023-02-14T04:24:01;10.70;;;6.13;;
53765;SDS011;39682;51.490;7.310;2023-02-14T04:26:27;12.48;;;6.85;;
53765;SDS011;39682;51.490;7.310;2023-02-14T04:28:53;11.27;;;6.15;;
53765;SDS011;39682;51.490;7.310;2023-02-14T04:31:19;11.52;;;6.32;;
53765;SDS011;39682;51.490;7.310;2023-02-14T04:33:48;9.90;;;6.68;;
53765;SDS011;39682;51.490;7.310;2023-02-14T04:36:15;12.70;;;6.63;;
53765;SDS011;39682;51.490;7.310;2023-02-14T04:38:41;11.07;;;6.80;;
53765;SDS011;39682;51.490;7.310;2023-02-14T04:41:07;11.75;;;6.63;;
53765;SDS011;39682;51.490;7.310;2023-02-14T04:43:33;11.05;;;6.97;;
53765;SDS011;39682;51.490;7.310;2023-02-14T04:45:59;14.68;;;7.20;;
53765;SDS011;39682;51.490;7.310;2023-02-14T04:48:25;13.40;;;6.03;;
53765;SDS011;39682;51.490;7.310;2023-02-14T04:50:54;12.43;;;6.88;;
53765;SDS011;39682;51.490;7.310;2023-02-14T04:53:20;10.73;;;6.38;;
53765;SDS011;39682;51.490;7.310;2023-02-14T04:55:49;13.73;;;7.88;;
53765;SDS011;39682;51.490;7.310;2023-02-14T04:58:15;11.85;;;7.15;;
53765;SDS011;39682;51.490;7.310;2023-02-14T05:00:41;12.38;;;8.00;;
53765;SDS011;39682;51.490;7.310;2023-02-14T05:03:07;11.02;;;6.03;;
53765;SDS011;39682;51.490;7.310;2023-02-14T05:05:34;11.40;;;5.88;;
53765;SDS011;39682;51.490;7.310;2023-02-14T05:08:00;12.63;;;7.07;;
53765;SDS011;39682;51.490;7.310;2023-02-14T05:10:25;13.50;;;7.05;;
53765;SDS011;39682;51.490;7.310;2023-02-14T05:12:53;11.35;;;6.65;;
53765;SDS011;39682;51.490;7.310;2023-02-14T05:15:19;12.13;;;7.10;;
53765;SDS011;39682;51.490;7.310;2023-02-14T05:17:44;12.00;;;6.63;;
53765;SDS011;39682;51.490;7.310;2023-02-14T05:20:10;12.10;;;7.10;;
53765;SDS011;39682;51.490;7.310;2023-02-14T05:22:36;15.07;;;7.70;;
53765;SDS011;39682;51.490;7.310;2023-02-14T05:25:02;14.18;;;7.22;;
53765;SDS011;39682;51.490;7.310;2023-02-14T05:27:28;13.82;;;8.57;;
53765;SDS011;39682;51.490;7.310;2023-02-14T05:29:54;11.75;;;6.72;;
53765;SDS011;39682;51.490;7.310;2023-02-14T05:32:20;14.88;;;7.47;;
53765;SDS011;39682;51.490;7.310;2023-02-14T05:34:46;12.20;;;6.78;;
53765;SDS011;39682;51.490;7.310;2023-02-14T05:37:12;16.83;;;7.38;;
53765;SDS011;39682;51.490;7.310;2023-02-14T05:39:38;13.73;;;7.95;;
53765;SDS011;39682;51.490;7.310;2023-02-14T05:42:04;16.20;;;7.82;;
53765;SDS011;39682;51.490;7.310;2023-02-14T05:44:30;16.42;;;7.93;;
53765;SDS011;39682;51.490;7.310;2023-02-14T05:46:56;12.88;;;7.32;;
53765;SDS011;39682;51.490;7.310;2023-02-14T05:49:22;14.68;;;7.53;;
53765;SDS011;39682;51.490;7.310;2023-02-14T05:51:48;13.05;;;7.45;;
53765;SDS011;39682;51.490;7.310;2023-02-14T05:54:14;14.98;;;7.55;;
53765;SDS011;39682;51.490;7.310;2023-02-14T05:56:40;14.88;;;8.73;;
53765;SDS011;39682;51.490;7.310;2023-02-14T05:59:06;15.10;;;8.00;;
53765;SDS011;39682;51.490;7.310;2023-02-14T06:01:32;17.55;;;8.80;;
53765;SDS011;39682;51.490;7.310;2023-02-14T06:03:58;14.43;;;8.00;;
53765;SDS011;39682;51.490;7.310;2023-02-14T06:06:24;17.52;;;8.32;;
53765;SDS011;39682;51.490;7.310;2023-02-14T06:08:50;14.65;;;7.72;;
53765;SDS011;39682;51.490;7.310;2023-02-14T06:11:16;18.92;;;8.00;;
53765;SDS011;39682;51.490;7.310;2023-02-14T06:13:42;14.27;;;8.07;;
53765;SDS011;39682;51.490;7.310;2023-02-14T06:16:08;16.98;;;9.18;;
53765;SDS011;39682;51.490;7.310;2023-02-14T06:18:34;14.13;;;7.72;;
53765;SDS011;39682;51.490;7.310;2023-02-14T06:21:00;15.20;;;7.72;;
53765;SDS011;39682;51.490;7.310;2023-02-14T06:23:26;18.35;;;9.68;;
53765;SDS011;39682;51.490;7.310;2023-02-14T06:25:52;17.40;;;9.20;;
53765;SDS011;39682;51.490;7.310;2023-02-14T06:28:18;15.10;;;8.95;;
53765;SDS011;39682;51.490;7.310;2023-02-14T06:30:45;13.65;;;8.23;;
53765;SDS011;39682;51.490;7.310;2023-02-14T06:33:11;22.55;;;9.77;;
53765;SDS011;39682;51.490;7.310;2023-02-14T06:35:37;13.90;;;8.15;;
53765;SDS011;39682;51.490;7.310;2023-02-14T06:38:03;15.57;;;8.35;;
53765;SDS011;39682;51.490;7.310;2023-02-14T06:40:29;17.88;;;7.97;;
53765;SDS011;39682;51.490;7.310;2023-02-14T06:42:55;20.73;;;8.93;;
53765;SDS011;39682;51.490;7.310;2023-02-14T06:45:20;24.60;;;10.30;;
53765;SDS011;39682;51.490;7.310;2023-02-14T06:47:46;18.20;;;9.05;;
53765;SDS011;39682;51.490;7.310;2023-02-14T06:50:12;16.92;;;9.85;;
53765;SDS011;39682;51.490;7.310;2023-02-14T06:52:38;21.83;;;10.05;;
53765;SDS011;39682;51.490;7.310;2023-02-14T06:55:06;19.58;;;10.43;;
53765;SDS011;39682;51.490;7.310;2023-02-14T06:57:32;19.30;;;9.40;;
53765;SDS011;39682;51.490;7.310;2023-02-14T06:59:58;24.20;;;12.25;;
53765;SDS011;39682;51.490;7.310;2023-02-14T07:02:24;18.17;;;9.25;;
53765;SDS011;39682;51.490;7.310;2023-02-14T07:04:50;21.73;;;10.93;;
53765;SDS011;39682;51.490;7.310;2023-02-14T07:07:16;24.25;;;10.75;;
53765;SDS011;39682;51.490;7.310;2023-02-14T07:09:42;19.45;;;11.23;;
53765;SDS011;39682;51.490;7.310;2023-02-14T07:12:08;25.77;;;11.50;;
53765;SDS011;39682;51.490;7.310;2023-02-14T07:14:34;20.67;;;11.10;;
53765;SDS011;39682;51.490;7.310;2023-02-14T07:17:00;22.50;;;11.68;;
53765;SDS011;39682;51.490;7.310;2023-02-14T07:19:26;26.75;;;13.00;;
53765;SDS011;39682;51.490;7.310;2023-02-14T07:21:52;23.13;;;11.20;;
53765;SDS011;39682;51.490;7.310;2023-02-14T07:24:17;28.70;;;12.85;;
53765;SDS011;39682;51.490;7.310;2023-02-14T07:26:43;27.88;;;12.15;;
53765;SDS011;39682;51.490;7.310;2023-02-14T07:29:09;26.08;;;12.02;;
53765;SDS011;39682;51.490;7.310;2023-02-14T07:31:35;23.27;;;11.93;;
53765;SDS011;39682;51.490;7.310;2023-02-14T07:34:01;28.80;;;12.18;;
53765;SDS011;39682;51.490;7.310;2023-02-14T07:36:27;28.80;;;13.73;;
53765;SDS011;39682;51.490;7.310;2023-02-14T07:38:56;29.20;;;12.63;;
53765;SDS011;39682;51.490;7.310;2023-02-14T07:41:22;25.73;;;12.40;;
53765;SDS011;39682;51.490;7.310;2023-02-14T07:43:48;26.30;;;13.35;;
53765;SDS011;39682;51.490;7.310;2023-02-14T07:46:14;29.17;;;14.20;;
53765;SDS011;39682;51.490;7.310;2023-02-14T07:48:41;25.80;;;13.25;;
53765;SDS011;39682;51.490;7.310;2023-02-14T07:51:07;25.58;;;12.85;;
53765;SDS011;39682;51.490;7.310;2023-02-14T07:53:33;27.95;;;12.90;;
53765;SDS011;39682;51.490;7.310;2023-02-14T07:55:59;27.67;;;13.88;;
53765;SDS011;39682;51.490;7.310;2023-02-14T07:58:25;28.45;;;13.77;;
53765;SDS011;39682;51.490;7.310;2023-02-14T08:00:51;29.20;;;14.07;;
53765;SDS011;39682;51.490;7.310;2023-02-14T08:03:17;31.63;;;14.85;;
53765;SDS011;39682;51.490;7.310;2023-02-14T08:05:44;29.70;;;13.93;;
53765;SDS011;39682;51.490;7.310;2023-02-14T08:08:20;28.65;;;13.82;;
53765;SDS011;39682;51.490;7.310;2023-02-14T08:10:46;27.65;;;14.25;;
53765;SDS011;39682;51.490;7.310;2023-02-14T08:13:12;34.00;;;15.82;;
53765;SDS011;39682;51.490;7.310;2023-02-14T08:15:38;28.35;;;15.48;;
53765;SDS011;39682;51.490;7.310;2023-02-14T08:18:23;35.00;;;16.55;;
53765;SDS011;39682;51.490;7.310;2023-02-14T08:20:51;29.50;;;14.88;;
53765;SDS011;39682;51.490;7.310;2023-02-14T08:23:17;31.35;;;16.02;;
53765;SDS011;39682;51.490;7.310;2023-02-14T08:25:43;29.35;;;15.43;;
53765;SDS011;39682;51.490;7.310;2023-02-14T08:28:09;27.92;;;13.57;;
53765;SDS011;39682;51.490;7.310;2023-02-14T08:30:38;28.73;;;13.38;;
53765;SDS011;39682;51.490;7.310;2023-02-14T08:33:04;25.50;;;12.90;;
53765;SDS011;39682;51.490;7.310;2023-02-14T08:35:30;36.95;;;19.50;;
53765;SDS011;39682;51.490;7.310;2023-02-14T08:37:56;25.92;;;13.10;;
53765;SDS011;39682;51.490;7.310;2023-02-14T08:40:22;24.67;;;13.00;;
53765;SDS011;39682;51.490;7.310;2023-02-14T08:42:48;23.38;;;12.65;;
53765;SDS011;39682;51.490;7.310;2023-02-14T08:45:14;18.27;;;11.13;;
53765;SDS011;39682;51.490;7.310;2023-02-14T08:47:40;23.92;;;13.25;;
53765;SDS011;39682;51.490;7.310;2023-02-14T08:50:08;19.08;;;11.70;;
53765;SDS011;39682;51.490;7.310;2023-02-14T08:52:34;21.10;;;10.57;;
53765;SDS011;39682;51.490;7.310;2023-02-14T08:55:00;18.17;;;10.63;;
53765;SDS011;39682;51.490;7.310;2023-02-14T08:57:27;18.98;;;10.43;;
53765;SDS011;39682;51.490;7.310;2023-02-14T08:59:53;13.70;;;9.45;;
53765;SDS011;39682;51.490;7.310;2023-02-14T09:02:19;17.65;;;10.23;;
53765;SDS011;39682;51.490;7.310;2023-02-14T09:04:45;15.57;;;9.50;;
53765;SDS011;39682;51.490;7.310;2023-02-14T09:07:11;13.68;;;8.20;;
53765;SDS011;39682;51.490;7.310;2023-02-14T09:09:37;14.02;;;8.27;;
53765;SDS011;39682;51.490;7.310;2023-02-14T09:12:04;12.73;;;7.72;;
53765;SDS011;39682;51.490;7.310;2023-02-14T09:14:37;12.57;;;7.53;;
53765;SDS011;39682;51.490;7.310;2023-02-14T09:17:03;15.18;;;8.10;;
53765;SDS011;39682;51.490;7.310;2023-02-14T09:19:33;10.77;;;7.28;;
53765;SDS011;39682;51.490;7.310;2023-02-14T09:21:59;13.30;;;7.35;;
53765;SDS011;39682;51.490;7.310;2023-02-14T09:24:27;10.57;;;7.10;;
53765;SDS011;39682;51.490;7.310;2023-02-14T09:26:53;12.05;;;7.65;;
53765;SDS011;39682;51.490;7.310;2023-02-14T09:29:21;16.63;;;8.48;;
53765;SDS011;39682;51.490;7.310;2023-02-14T09:31:47;15.45;;;8.15;;
53765;SDS011;39682;51.490;7.310;2023-02-14T09:34:13;15.18;;;8.00;;
53765;SDS011;39682;51.490;7.310;2023-02-14T09:36:58;14.45;;;7.90;;
53765;SDS011;39682;51.490;7.310;2023-02-14T09:39:43;14.50;;;8.37;;
53765;SDS011;39682;51.490;7.310;2023-02-14T09:42:13;16.35;;;7.78;;
53765;SDS011;39682;51.490;7.310;2023-02-14T09:44:42;16.25;;;7.93;;
53765;SDS011;39682;51.490;7.310;2023-02-14T09:49:36;13.38;;;7.72;;
53765;SDS011;39682;51.490;7.310;2023-02-14T09:52:05;12.63;;;7.07;;
53765;SDS011;39682;51.490;7.310;2023-02-14T09:54:32;11.38;;;6.60;;
53765;SDS011;39682;51.490;7.310;2023-02-14T09:57:00;10.25;;;5.93;;
53765;SDS011;39682;51.490;7.310;2023-02-14T09:59:30;11.07;;;7.30;;
53765;SDS011;39682;51.490;7.310;2023-02-14T10:02:17;11.38;;;6.97;;
53765;SDS011;39682;51.490;7.310;2023-02-14T10:07:38;10.65;;;6.47;;
53765;SDS011;39682;51.490;7.310;2023-02-14T10:12:38;12.45;;;7.00;;
53765;SDS011;39682;51.490;7.310;2023-02-14T10:15:14;10.70;;;7.30;;
53765;SDS011;39682;51.490;7.310;2023-02-14T10:20:16;12.15;;;6.95;;
53765;SDS011;39682;51.490;7.310;2023-02-14T10:22:49;13.88;;;6.95;;
53765;SDS011;39682;51.490;7.310;2023-02-14T10:25:18;15.80;;;7.30;;
53765;SDS011;39682;51.490;7.310;2023-02-14T10:27:45;10.52;;;7.00;;
53765;SDS011;39682;51.490;7.310;2023-02-14T10:30:13;12.88;;;6.65;;
53765;SDS011;39682;51.490;7.310;2023-02-14T10:35:22;12.32;;;7.13;;
53765;SDS011;39682;51.490;7.310;2023-02-14T10:37:57;11.88;;;6.38;;
53765;SDS011;39682;51.490;7.310;2023-02-14T10:41:25;11.73;;;6.20;;
53765;SDS011;39682;51.490;7.310;2023-02-14T10:56:01;8.23;;;5.20;;
53765;SDS011;39682;51.490;7.310;2023-02-14T10:58:31;9.02;;;6.32;;
53765;SDS011;39682;51.490;7.310;2023-02-14T11:01:00;9.10;;;5.88;;
53765;SDS011;39682;51.490;7.310;2023-02-14T11:03:27;12.15;;;5.78;;
53765;SDS011;39682;51.490;7.310;2023-02-14T11:05:54;11.05;;;6.22;;
53765;SDS011;39682;51.490;7.310;2023-02-14T11:08:27;11.88;;;8.05;;
53765;SDS011;39682;51.490;7.310;2023-02-14T11:10:54;11.77;;;6.68;;
53765;SDS011;39682;51.490;7.310;2023-02-14T11:13:27;10.75;;;6.57;;
53765;SDS011;39682;51.490;7.310;2023-02-14T11:15:57;8.85;;;6.05;;
53765;SDS011;39682;51.490;7.310;2023-02-14T11:18:24;10.55;;;6.32;;
53765;SDS011;39682;51.490;7.310;2023-02-14T11:21:28;10.27;;;6.35;;
53765;SDS011;39682;51.490;7.310;2023-02-14T11:23:54;12.10;;;6.28;;
53765;SDS011;39682;51.490;7.310;2023-02-14T11:29:02;9.30;;;5.72;;
53765;SDS011;39682;51.490;7.310;2023-02-14T11:31:35;8.25;;;5.28;;
53765;SDS011;39682;51.490;7.310;2023-02-14T11:34:03;10.07;;;6.47;;
53765;SDS011;39682;51.490;7.310;2023-02-14T11:36:30;13.15;;;6.47;;
53765;SDS011;39682;51.490;7.310;2023-02-14T11:41:31;8.88;;;5.50;;
53765;SDS011;39682;51.490;7.310;2023-02-14T11:44:13;10.60;;;6.35;;
53765;SDS011;39682;51.490;7.310;2023-02-14T11:46:42;8.82;;;5.05;;
53765;SDS011;39682;51.490;7.310;2023-02-14T11:49:32;7.55;;;5.28;;
53765;SDS011;39682;51.490;7.310;2023-02-14T11:51:59;8.57;;;5.57;;
53765;SDS011;39682;51.490;7.310;2023-02-14T11:54:34;9.07;;;5.18;;
53765;SDS011;39682;51.490;7.310;2023-02-14T11:57:07;8.57;;;5.30;;
53765;SDS011;39682;51.490;7.310;2023-02-14T11:59:43;8.57;;;5.43;;
53765;SDS011;39682;51.490;7.310;2023-02-14T12:04:44;9.32;;;5.85;;
53765;SDS011;39682;51.490;7.310;2023-02-14T12:07:18;9.65;;;5.35;;
53765;SDS011;39682;51.490;7.310;2023-02-14T12:09:45;7.15;;;5.03;;
53765;SDS011;39682;51.490;7.310;2023-02-14T12:12:19;7.80;;;5.93;;
53765;SDS011;39682;51.490;7.310;2023-02-14T12:17:17;7.50;;;4.68;;
53765;SDS011;39682;51.490;7.310;2023-02-14T12:20:02;8.85;;;5.70;;
53765;SDS011;39682;51.490;7.310;2023-02-14T12:22:35;10.00;;;5.70;;
53765;SDS011;39682;51.490;7.310;2023-02-14T12:25:09;7.85;;;5.18;;
53765;SDS011;39682;51.490;7.310;2023-02-14T12:27:42;6.97;;;4.47;;
53765;SDS011;39682;51.490;7.310;2023-02-14T12:30:15;7.80;;;5.53;;
53765;SDS011;39682;51.490;7.310;2023-02-14T12:32:51;8.70;;;5.78;;
53765;SDS011;39682;51.490;7.310;2023-02-14T12:35:26;8.48;;;5.53;;
53765;SDS011;39682;51.490;7.310;2023-02-14T12:43:15;8.13;;;5.40;;
53765;SDS011;39682;51.490;7.310;2023-02-14T12:51:02;9.73;;;4.97;;
53765;SDS011;39682;51.490;7.310;2023-02-14T12:56:18;8.27;;;4.65;;
53765;SDS011;39682;51.490;7.310;2023-02-14T12:58:56;8.32;;;4.82;;
53765;SDS011;39682;51.490;7.310;2023-02-14T13:07:02;8.50;;;4.80;;
53765;SDS011;39682;51.490;7.310;2023-02-14T13:09:37;8.52;;;5.15;;
53765;SDS011;39682;51.490;7.310;2023-02-14T13:12:20;8.77;;;5.53;;
53765;SDS011;39682;51.490;7.310;2023-02-14T13:14:56;8.57;;;4.82;;
53765;SDS011;39682;51.490;7.310;2023-02-14T13:19:58;10.05;;;5.07;;
53765;SDS011;39682;51.490;7.310;2023-02-14T13:22:25;9.40;;;5.97;;
53765;SDS011;39682;51.490;7.310;2023-02-14T13:25:15;9.45;;;5.40;;
53765;SDS011;39682;51.490;7.310;2023-02-14T13:27:38;9.40;;;6.05;;
53765;SDS011;39682;51.490;7.310;2023-02-14T13:30:05;7.68;;;5.07;;
53765;SDS011;39682;51.490;7.310;2023-02-14T13:32:38;8.75;;;5.53;;
53765;SDS011;39682;51.490;7.310;2023-02-14T13:35:05;7.72;;;4.88;;
53765;SDS011;39682;51.490;7.310;2023-02-14T13:37:32;6.53;;;5.20;;
53765;SDS011;39682;51.490;7.310;2023-02-14T13:39:59;8.70;;;4.85;;
53765;SDS011;39682;51.490;7.310;2023-02-14T13:50:27;10.85;;;5.50;;
53765;SDS011;39682;51.490;7.310;2023-02-14T13:52:53;7.90;;;5.13;;
53765;SDS011;39682;51.490;7.310;2023-02-14T13:55:42;9.32;;;5.65;;
53765;SDS011;39682;51.490;7.310;2023-02-14T13:58:06;8.38;;;4.75;;
53765;SDS011;39682;51.490;7.310;2023-02-14T14:00:43;12.53;;;6.17;;
53765;SDS011;39682;51.490;7.310;2023-02-14T14:03:14;10.05;;;5.40;;
53765;SDS011;39682;51.490;7.310;2023-02-14T14:18:48;8.60;;;5.15;;
53765;SDS011;39682;51.490;7.310;2023-02-14T14:21:22;8.18;;;4.57;;
53765;SDS011;39682;51.490;7.310;2023-02-14T14:24:01;11.38;;;5.15;;
53765;SDS011;39682;51.490;7.310;2023-02-14T14:26:29;9.60;;;5.32;;
53765;SDS011;39682;51.490;7.310;2023-02-14T14:28:55;12.00;;;5.35;;
53765;SDS011;39682;51.490;7.310;2023-02-14T14:31:21;9.65;;;4.68;;
53765;SDS011;39682;51.490;7.310;2023-02-14T14:33:55;10.85;;;5.57;;
53765;SDS011;39682;51.490;7.310;2023-02-14T14:36:21;9.48;;;5.20;;
53765;SDS011;39682;51.490;7.310;2023-02-14T14:38:48;9.50;;;5.25;;
53765;SDS011;39682;51.490;7.310;2023-02-14T14:41:15;6.95;;;4.45;;
53765;SDS011;39682;51.490;7.310;2023-02-14T14:43:41;9.07;;;5.38;;
53765;SDS011;39682;51.490;7.310;2023-02-14T14:46:08;8.80;;;5.55;;
53765;SDS011;39682;51.490;7.310;2023-02-14T14:48:45;8.30;;;5.30;;
53765;SDS011;39682;51.490;7.310;2023-02-14T14:51:20;8.55;;;5.05;;
53765;SDS011;39682;51.490;7.310;2023-02-14T14:53:49;7.90;;;5.15;;
53765;SDS011;39682;51.490;7.310;2023-02-14T14:56:19;6.68;;;4.35;;
53765;SDS011;39682;51.490;7.310;2023-02-14T14:58:46;8.98;;;5.47;;
53765;SDS011;39682;51.490;7.310;2023-02-14T15:01:13;7.43;;;5.03;;
53765;SDS011;39682;51.490;7.310;2023-02-14T15:03:52;7.85;;;5.05;;
53765;SDS011;39682;51.490;7.310;2023-02-14T15:06:19;8.63;;;5.30;;
53765;SDS011;39682;51.490;7.310;2023-02-14T15:08:46;8.65;;;5.53;;
53765;SDS011;39682;51.490;7.310;2023-02-14T15:11:19;10.25;;;5.18;;
53765;SDS011;39682;51.490;7.310;2023-02-14T15:14:05;8.02;;;5.30;;
53765;SDS011;39682;51.490;7.310;2023-02-14T15:16:40;9.10;;;5.45;;
53765;SDS011;39682;51.490;7.310;2023-02-14T15:19:10;8.45;;;5.03;;
53765;SDS011;39682;51.490;7.310;2023-02-14T15:21:40;10.20;;;5.68;;
53765;SDS011;39682;51.490;7.310;2023-02-14T15:24:08;8.80;;;4.60;;
53765;SDS011;39682;51.490;7.310;2023-02-14T15:26:35;7.78;;;5.18;;
53765;SDS011;39682;51.490;7.310;2023-02-14T15:29:02;8.43;;;4.97;;
53765;SDS011;39682;51.490;7.310;2023-02-14T15:31:32;8.88;;;4.60;;
53765;SDS011;39682;51.490;7.310;2023-02-14T15:33:59;12.85;;;6.25;;
53765;SDS011;39682;51.490;7.310;2023-02-14T15:36:26;9.13;;;4.90;;
53765;SDS011;39682;51.490;7.310;2023-02-14T15:38:53;10.73;;;5.78;;
53765;SDS011;39682;51.490;7.310;2023-02-14T15:41:20;9.98;;;5.82;;
53765;SDS011;39682;51.490;7.310;2023-02-14T15:43:49;10.05;;;6.10;;
53765;SDS011;39682;51.490;7.310;2023-02-14T15:46:34;9.93;;;5.38;;
53765;SDS011;39682;51.490;7.310;2023-02-14T15:49:09;8.68;;;4.75;;
53765;SDS011;39682;51.490;7.310;2023-02-14T15:51:35;10.35;;;4.93;;
53765;SDS011;39682;51.490;7.310;2023-02-14T15:54:03;10.75;;;5.22;;
53765;SDS011;39682;51.490;7.310;2023-02-14T15:56:30;9.27;;;5.35;;
53765;SDS011;39682;51.490;7.310;2023-02-14T15:59:02;11.15;;;4.93;;
53765;SDS011;39682;51.490;7.310;2023-02-14T16:01:29;10.80;;;6.55;;
53765;SDS011;39682;51.490;7.310;2023-02-14T16:03:57;11.40;;;8.10;;
53765;SDS011;39682;51.490;7.310;2023-02-14T16:09:03;21.40;;;8.02;;
53765;SDS011;39682;51.490;7.310;2023-02-14T16:11:35;14.45;;;7.88;;
53765;SDS011;39682;51.490;7.310;2023-02-14T16:19:43;12.57;;;8.05;;
53765;SDS011;39682;51.490;7.310;2023-02-14T16:22:23;12.80;;;8.20;;
53765;SDS011;39682;51.490;7.310;2023-02-14T16:24:50;16.08;;;8.10;;
53765;SDS011;39682;51.490;7.310;2023-02-14T16:27:15;10.95;;;7.72;;
53765;SDS011;39682;51.490;7.310;2023-02-14T16:29:41;15.60;;;8.15;;
53765;SDS011;39682;51.490;7.310;2023-02-14T16:32:09;16.95;;;9.23;;
53765;SDS011;39682;51.490;7.310;2023-02-14T16:34:36;12.60;;;8.02;;
53765;SDS011;39682;51.490;7.310;2023-02-14T16:37:06;17.48;;;8.57;;
53765;SDS011;39682;51.490;7.310;2023-02-14T16:39:33;13.93;;;8.65;;
53765;SDS011;39682;51.490;7.310;2023-02-14T16:41:59;14.63;;;9.13;;
53765;SDS011;39682;51.490;7.310;2023-02-14T16:44:25;14.88;;;8.43;;
53765;SDS011;39682;51.490;7.310;2023-02-14T16:46:51;15.00;;;8.77;;
53765;SDS011;39682;51.490;7.310;2023-02-14T16:49:17;14.82;;;8.55;;
53765;SDS011;39682;51.490;7.310;2023-02-14T16:51:44;14.68;;;9.88;;
53765;SDS011;39682;51.490;7.310;2023-02-14T16:54:17;14.88;;;9.10;;
53765;SDS011;39682;51.490;7.310;2023-02-14T16:56:47;17.35;;;8.32;;